createdAt,value
2023-07-28T00:00:51.294Z,100.00
2023-07-28T00:04:55.282Z,100.00
2023-07-28T00:08:57.936Z,100.00
2023-07-28T00:13:02.367Z,100.00
2023-07-28T00:17:05.138Z,100.00
2023-07-28T00:21:09.154Z,100.00
2023-07-28T00:25:11.992Z,100.00
2023-07-28T00:29:14.707Z,100.00
2023-07-28T00:33:17.568Z,100.00
2023-07-28T00:37:21.561Z,100.00
2023-07-28T00:41:24.220Z,100.00
2023-07-28T00:45:27.321Z,100.00
2023-07-28T00:49:29.981Z,100.00
2023-07-28T00:53:34.660Z,100.00
2023-07-28T00:57:37.324Z,100.00
2023-07-28T01:01:40.017Z,100.00
2023-07-28T01:05:50.268Z,100.00
2023-07-28T01:09:59.016Z,100.00
2023-07-28T01:14:01.668Z,100.00
2023-07-28T01:18:04.456Z,100.00
2023-07-28T01:22:24.851Z,100.00
2023-07-28T01:26:33.069Z,100.00
2023-07-28T01:30:36.108Z,100.00
2023-07-28T01:34:38.709Z,100.00
2023-07-28T01:38:41.866Z,100.00
2023-07-28T01:42:45.916Z,100.00
2023-07-28T01:46:48.544Z,100.00
2023-07-28T01:50:51.186Z,100.00
2023-07-28T01:54:53.819Z,100.00
2023-07-28T01:58:57.764Z,100.00
2023-07-28T02:03:03.115Z,100.00
2023-07-28T02:07:06.110Z,100.00
2023-07-28T02:11:08.728Z,100.00
2023-07-28T02:15:13.820Z,100.00
2023-07-28T02:19:16.459Z,100.00
2023-07-28T02:23:19.086Z,100.00
2023-07-28T02:27:21.878Z,100.00
2023-07-28T02:31:25.900Z,100.00
2023-07-28T02:35:28.599Z,100.00
2023-07-28T02:39:31.296Z,100.00
2023-07-28T02:43:33.926Z,100.00
2023-07-28T02:47:38.137Z,100.00
2023-07-28T02:51:40.765Z,100.00
2023-07-28T02:55:44.056Z,100.00
2023-07-28T02:59:46.668Z,100.00
2023-07-28T03:03:50.665Z,100.00
2023-07-28T03:07:53.302Z,100.00
2023-07-28T03:11:55.939Z,100.00
2023-07-28T03:15:58.654Z,100.00
2023-07-28T03:20:02.776Z,100.00
2023-07-28T03:24:06.291Z,100.00
2023-07-28T03:28:08.949Z,100.00
2023-07-28T03:32:11.590Z,100.00
2023-07-28T03:36:15.651Z,100.00
2023-07-28T03:40:18.488Z,100.00
2023-07-28T03:44:21.506Z,100.00
2023-07-28T03:48:24.354Z,100.00
2023-07-28T03:52:28.365Z,100.00
2023-07-28T03:56:31.055Z,100.00
2023-07-28T04:00:33.722Z,100.00
2023-07-28T04:04:37.890Z,100.00
2023-07-28T04:08:42.091Z,100.00
2023-07-28T04:12:44.771Z,100.00
2023-07-28T04:16:47.469Z,100.00
2023-07-28T04:20:50.094Z,100.00
2023-07-28T04:24:55.071Z,100.00
2023-07-28T04:28:57.743Z,100.00
2023-07-28T04:33:00.460Z,100.00
2023-07-28T04:37:03.102Z,100.00
2023-07-28T04:41:07.089Z,100.00
2023-07-28T04:45:10.571Z,100.00
2023-07-28T04:49:13.259Z,100.00
2023-07-28T04:53:16.707Z,100.00
2023-07-28T04:57:20.968Z,100.00
2023-07-28T05:01:23.650Z,100.00
2023-07-28T05:05:26.302Z,100.00
2023-07-28T05:09:29.300Z,100.00
2023-07-28T05:13:33.396Z,100.00
2023-07-28T05:17:36.180Z,100.00
2023-07-28T05:21:38.866Z,100.00
2023-07-28T05:25:41.467Z,100.00
2023-07-28T05:29:45.633Z,100.00
2023-07-28T05:33:48.286Z,100.00
2023-07-28T05:37:50.919Z,100.00
2023-07-28T05:41:53.732Z,100.00
2023-07-28T05:45:58.490Z,100.00
2023-07-28T05:50:04.809Z,100.00
2023-07-28T05:54:08.234Z,100.00
2023-07-28T05:58:10.946Z,100.00
2023-07-28T06:02:14.948Z,100.00
2023-07-28T06:06:17.744Z,100.00
2023-07-28T06:10:20.403Z,100.00
2023-07-28T06:14:23.022Z,100.00
2023-07-28T06:18:27.567Z,100.00
2023-07-28T06:22:30.328Z,95.24
2023-07-28T06:26:32.957Z,96.04
2023-07-28T06:30:35.805Z,96.11
2023-07-28T06:34:39.816Z,94.08
2023-07-28T06:38:44.960Z,94.60
2023-07-28T06:42:48.485Z,94.36
2023-07-28T06:46:51.132Z,93.43
2023-07-28T06:50:55.402Z,92.67
2023-07-28T06:54:58.036Z,92.72
2023-07-28T06:59:13.832Z,92.50
2023-07-28T07:03:19.751Z,93.31
2023-07-28T07:07:23.732Z,92.50
2023-07-28T07:11:26.396Z,92.63
2023-07-28T07:15:29.070Z,92.37
2023-07-28T07:19:31.762Z,91.29
2023-07-28T07:23:35.735Z,91.14
2023-07-28T07:27:38.472Z,89.98
2023-07-28T07:31:41.151Z,90.46
2023-07-28T07:35:43.811Z,89.18
2023-07-28T07:39:47.814Z,86.86
2023-07-28T07:43:51.333Z,85.51
2023-07-28T07:47:54.074Z,84.78
2023-07-28T07:51:56.737Z,84.33
2023-07-28T07:56:00.767Z,82.90
2023-07-28T08:00:03.950Z,82.32
2023-07-28T08:04:06.627Z,79.49
2023-07-28T08:08:10.739Z,80.84
2023-07-28T08:12:16.015Z,79.75
2023-07-28T08:16:18.722Z,80.36
2023-07-28T08:20:21.434Z,80.48
2023-07-28T08:24:24.463Z,80.21
2023-07-28T08:28:28.442Z,80.22
2023-07-28T08:32:31.212Z,79.71
2023-07-28T08:36:33.873Z,79.65
2023-07-28T08:40:36.585Z,80.13
2023-07-28T08:44:40.592Z,80.03
2023-07-28T08:48:43.305Z,79.82
2023-07-28T08:52:46.443Z,78.75
2023-07-28T08:56:49.048Z,77.79
2023-07-28T09:00:54.415Z,77.52
2023-07-28T09:04:57.072Z,76.71
2023-07-28T09:08:59.841Z,76.92
2023-07-28T09:13:02.509Z,77.10
2023-07-28T09:17:10.663Z,76.26
2023-07-28T09:21:18.752Z,76.52
2023-07-28T09:25:21.934Z,76.74
2023-07-28T09:29:25.332Z,77.40
2023-07-28T09:33:34.307Z,77.90
2023-07-28T09:37:38.904Z,78.27
2023-07-28T09:41:41.544Z,78.89
2023-07-28T09:45:45.698Z,78.98
2023-07-28T09:49:52.724Z,78.89
2023-07-28T09:53:58.019Z,80.15
2023-07-28T09:58:07.121Z,83.36
2023-07-28T10:02:11.134Z,84.78
2023-07-28T10:06:17.762Z,85.79
2023-07-28T10:10:20.601Z,85.79
2023-07-28T10:14:30.494Z,84.58
2023-07-28T10:18:33.124Z,85.15
2023-07-28T10:22:45.598Z,83.17
2023-07-28T10:26:48.287Z,80.32
2023-07-28T10:30:55.286Z,77.49
2023-07-28T10:35:08.072Z,78.68
2023-07-28T10:39:18.169Z,78.46
2023-07-28T10:43:20.922Z,73.71
2023-07-28T10:47:24.230Z,73.29
2023-07-28T10:51:32.272Z,74.01
2023-07-28T10:55:37.620Z,72.87
2023-07-28T10:59:40.132Z,72.31
2023-07-28T11:03:43.235Z,71.43
2023-07-28T11:07:46.070Z,71.49
2023-07-28T11:11:51.803Z,69.49
2023-07-28T11:15:54.621Z,70.94
2023-07-28T11:19:57.769Z,70.54
2023-07-28T11:24:00.410Z,68.90
2023-07-28T11:28:06.710Z,69.63
2023-07-28T11:32:11.636Z,68.43
2023-07-28T11:36:14.284Z,68.76
2023-07-28T11:40:19.297Z,66.88
2023-07-28T11:44:23.672Z,68.63
2023-07-28T11:48:32.598Z,68.58
2023-07-28T11:52:37.496Z,69.14
2023-07-28T11:56:40.261Z,70.04
2023-07-28T12:00:45.375Z,70.29
2023-07-28T12:21:26.155Z,66.75
2023-07-28T12:25:29.202Z,66.49
2023-07-28T12:29:31.882Z,65.69
2023-07-28T12:42:13.191Z,59.82
2023-07-28T12:46:11.459Z,60.41
2023-07-28T12:50:19.065Z,61.58
2023-07-28T12:54:23.160Z,60.78
2023-07-28T13:02:31.722Z,62.41
2023-07-28T13:06:36.114Z,61.41
2023-07-28T13:14:44.368Z,62.11
2023-07-28T13:18:47.083Z,63.28
2023-07-28T13:22:51.122Z,62.68
2023-07-28T13:26:53.788Z,59.57
2023-07-28T13:30:56.405Z,59.63
2023-07-28T13:34:59.079Z,60.49
2023-07-28T13:39:03.257Z,60.76
2023-07-28T13:43:06.643Z,61.17
2023-07-28T13:47:09.892Z,61.75
2023-07-28T13:55:19.683Z,61.06
2023-07-28T13:59:22.360Z,61.29
2023-07-28T14:03:25.063Z,60.95
2023-07-28T14:07:28.037Z,62.14
2023-07-28T14:11:32.121Z,61.95
2023-07-28T14:15:34.860Z,62.43
2023-07-28T14:19:40.574Z,61.96
2023-07-28T14:23:43.218Z,61.36
2023-07-28T14:27:47.196Z,62.00
2023-07-28T14:31:50.002Z,62.40
2023-07-28T14:35:53.620Z,60.76
2023-07-28T14:39:56.300Z,60.69
2023-07-28T14:44:00.621Z,61.28
2023-07-28T14:48:04.101Z,61.84
2023-07-28T14:52:07.743Z,61.44
2023-07-28T14:56:11.502Z,59.30
2023-07-28T15:00:16.126Z,59.78
2023-07-28T15:04:18.823Z,59.51
2023-07-28T15:08:21.536Z,58.28
2023-07-28T15:12:24.305Z,58.36
2023-07-28T15:16:28.318Z,58.64
2023-07-28T15:20:31.193Z,56.48
2023-07-28T15:24:33.886Z,56.49
2023-07-28T15:28:36.573Z,57.87
2023-07-28T15:32:40.923Z,58.27
2023-07-28T15:36:45.836Z,58.02
2023-07-28T15:40:48.646Z,58.33
2023-07-28T15:44:51.564Z,59.40
2023-07-28T15:48:55.518Z,59.80
2023-07-28T15:52:58.138Z,59.33
2023-07-28T15:57:00.810Z,59.99
2023-07-28T16:01:04.307Z,60.10
2023-07-28T16:05:09.117Z,59.74
2023-07-28T16:09:16.641Z,60.45
2023-07-28T16:13:19.896Z,60.26
2023-07-28T16:17:22.534Z,60.39
2023-07-28T16:21:26.511Z,60.61
2023-07-28T16:25:29.139Z,60.89
2023-07-28T16:29:31.933Z,60.96
2023-07-28T16:33:34.709Z,61.13
2023-07-28T16:37:39.036Z,61.41
2023-07-28T16:41:42.139Z,61.75
2023-07-28T16:45:44.971Z,62.12
2023-07-28T16:49:47.652Z,61.96
2023-07-28T16:53:52.301Z,62.19
2023-07-28T16:57:55.021Z,62.77
2023-07-28T17:01:57.758Z,62.54
2023-07-28T17:06:00.485Z,63.02
2023-07-28T17:10:04.743Z,63.50
2023-07-28T17:14:07.394Z,62.90
2023-07-28T17:18:10.716Z,63.68
2023-07-28T17:22:13.391Z,63.92
2023-07-28T17:26:17.723Z,64.72
2023-07-28T17:30:20.909Z,64.55
2023-07-28T17:34:23.575Z,65.19
2023-07-28T17:38:26.253Z,66.35
2023-07-28T17:42:30.673Z,67.20
2023-07-28T17:46:33.325Z,67.57
2023-07-28T17:50:36.314Z,68.87
2023-07-28T17:54:38.994Z,69.02
2023-07-28T17:58:42.987Z,70.16
2023-07-28T18:02:45.645Z,69.96
2023-07-28T18:06:48.313Z,70.68
2023-07-28T18:10:50.965Z,70.84
2023-07-28T18:14:54.942Z,72.17
2023-07-28T18:18:57.610Z,72.66
2023-07-28T18:23:00.321Z,73.42
2023-07-28T18:27:03.775Z,74.62
2023-07-28T18:31:09.946Z,74.39
2023-07-28T18:35:12.928Z,75.42
2023-07-28T18:39:15.583Z,75.45
2023-07-28T18:43:18.238Z,75.35
2023-07-28T18:47:22.286Z,76.11
2023-07-28T18:51:25.276Z,76.35
2023-07-28T18:55:27.963Z,76.98
2023-07-28T18:59:30.607Z,76.78
2023-07-28T19:03:34.767Z,77.16
2023-07-28T19:07:37.633Z,77.46
2023-07-28T19:11:40.280Z,78.26
2023-07-28T19:15:47.438Z,78.40
2023-07-28T19:19:51.930Z,79.01
2023-07-28T19:23:54.724Z,79.06
2023-07-28T19:27:58.214Z,79.74
2023-07-28T19:32:01.253Z,79.73
2023-07-28T19:36:05.577Z,80.36
2023-07-28T19:40:09.096Z,80.57
2023-07-28T19:44:11.752Z,80.76
2023-07-28T19:48:14.475Z,81.14
2023-07-28T19:52:18.693Z,80.96
2023-07-28T19:56:21.364Z,81.21
2023-07-28T20:00:24.482Z,81.49
2023-07-28T20:04:27.882Z,81.21
2023-07-28T20:08:31.872Z,81.19
2023-07-28T20:12:34.685Z,81.24
2023-07-28T20:16:37.692Z,81.31
2023-07-28T20:20:40.733Z,81.14
2023-07-28T20:24:45.592Z,81.11
2023-07-28T20:28:48.258Z,81.57
2023-07-28T20:32:50.975Z,82.65
2023-07-28T20:36:53.631Z,83.23
2023-07-28T20:41:01.168Z,83.31
2023-07-28T20:45:04.015Z,83.77
2023-07-28T20:49:07.518Z,83.71
2023-07-28T20:53:10.310Z,84.14
2023-07-28T20:57:14.249Z,84.41
2023-07-28T21:01:16.923Z,84.22
2023-07-28T21:05:19.589Z,83.84
2023-07-28T21:09:22.484Z,83.93
2023-07-28T21:13:26.608Z,83.83
2023-07-28T21:17:29.246Z,83.66
2023-07-28T21:21:31.925Z,84.06
2023-07-28T21:25:34.575Z,85.10
2023-07-28T21:29:41.517Z,87.54
2023-07-28T21:33:44.596Z,89.10
2023-07-28T21:37:47.247Z,90.74
2023-07-28T21:41:49.903Z,91.35
2023-07-28T21:45:53.920Z,92.42
2023-07-28T21:49:56.935Z,92.99
2023-07-28T21:53:59.611Z,93.33
2023-07-28T21:58:02.292Z,94.42
2023-07-28T22:02:10.043Z,94.43
2023-07-28T22:06:13.101Z,95.16
2023-07-28T22:10:15.738Z,96.22
2023-07-28T22:14:18.473Z,96.42
2023-07-28T22:18:22.468Z,96.95
2023-07-28T22:22:25.092Z,98.74
2023-07-28T22:26:27.930Z,99.89
2023-07-28T22:30:30.592Z,100.00
2023-07-28T22:34:34.566Z,100.00
2023-07-28T22:38:37.252Z,100.00
2023-07-28T22:42:39.983Z,100.00
2023-07-28T22:46:42.724Z,100.00
2023-07-28T22:50:46.908Z,100.00
2023-07-28T22:54:52.187Z,100.00
2023-07-28T22:58:59.215Z,100.00
2023-07-28T23:03:02.154Z,100.00
2023-07-28T23:07:06.644Z,100.00
2023-07-28T23:11:09.675Z,100.00
2023-07-28T23:15:12.727Z,100.00
2023-07-28T23:19:15.384Z,100.00
2023-07-28T23:23:19.361Z,100.00
2023-07-28T23:27:23.074Z,100.00
2023-07-28T23:31:28.689Z,100.00
2023-07-28T23:35:31.535Z,100.00
2023-07-28T23:39:35.699Z,100.00
2023-07-28T23:43:38.501Z,100.00
2023-07-28T23:47:41.273Z,100.00
2023-07-28T23:51:44.009Z,100.00
2023-07-28T23:55:48.273Z,100.00
2023-07-28T23:59:50.902Z,100.00
